createdAt,value
2018-08-13T00:01:35.661Z,3.57
2018-08-13T00:04:04.022Z,3.30
2018-08-13T00:06:32.445Z,3.80
2018-08-13T00:09:00.719Z,3.23
2018-08-13T00:11:29.001Z,3.30
2018-08-13T00:13:57.258Z,3.50
2018-08-13T00:16:25.552Z,3.40
2018-08-13T00:18:53.866Z,3.73
2018-08-13T00:21:22.292Z,3.97
2018-08-13T00:23:50.539Z,4.30
2018-08-13T00:26:18.951Z,3.47
2018-08-13T00:28:47.133Z,3.60
2018-08-13T00:31:15.621Z,3.73
2018-08-13T00:33:43.883Z,3.50
2018-08-13T00:36:12.186Z,3.97
2018-08-13T00:38:40.598Z,3.60
2018-08-13T00:41:08.867Z,3.07
2018-08-13T00:43:37.100Z,3.60
2018-08-13T00:46:05.600Z,3.87
2018-08-13T00:48:34.072Z,3.50
2018-08-13T00:51:02.411Z,3.40
2018-08-13T00:53:31.267Z,3.60
2018-08-13T00:55:59.897Z,4.60
2018-08-13T00:58:28.557Z,3.53
2018-08-13T01:00:56.942Z,3.90
2018-08-13T01:03:25.516Z,3.30
2018-08-13T01:05:54.797Z,3.63
2018-08-13T01:08:23.156Z,3.80
2018-08-13T01:10:51.925Z,3.83
2018-08-13T01:13:20.198Z,3.30
2018-08-13T01:15:48.462Z,3.50
2018-08-13T01:18:16.960Z,3.90
2018-08-13T01:20:45.460Z,3.50
2018-08-13T01:23:13.722Z,3.70
2018-08-13T01:25:41.946Z,3.27
2018-08-13T01:28:10.383Z,4.22
2018-08-13T01:30:38.664Z,3.20
2018-08-13T01:33:07.048Z,3.77
2018-08-13T01:35:35.312Z,3.47
2018-08-13T01:38:03.544Z,3.83
2018-08-13T01:40:31.800Z,3.67
2018-08-13T01:43:00.021Z,4.30
2018-08-13T01:45:28.227Z,3.62
2018-08-13T01:47:56.445Z,2.87
2018-08-13T01:50:24.711Z,4.00
2018-08-13T01:52:53.008Z,3.05
2018-08-13T01:55:21.303Z,3.35
2018-08-13T01:57:49.580Z,3.47
2018-08-13T02:00:17.855Z,3.83
2018-08-13T02:02:46.156Z,3.50
2018-08-13T02:05:14.531Z,3.93
2018-08-13T02:07:42.946Z,3.33
2018-08-13T02:10:12.196Z,4.23
2018-08-13T02:12:40.746Z,3.70
2018-08-13T02:15:09.069Z,3.65
2018-08-13T02:17:37.331Z,4.27
2018-08-13T02:20:06.836Z,4.20
2018-08-13T02:22:35.124Z,4.00
2018-08-13T02:25:03.684Z,3.10
2018-08-13T02:27:32.009Z,4.27
2018-08-13T02:30:00.416Z,3.72
2018-08-13T02:32:28.697Z,4.15
2018-08-13T02:34:56.956Z,4.08
2018-08-13T02:37:25.188Z,4.20
2018-08-13T02:39:53.556Z,4.22
2018-08-13T02:42:21.785Z,3.95
2018-08-13T02:44:49.964Z,4.20
2018-08-13T02:47:18.262Z,3.93
2018-08-13T02:49:46.476Z,3.75
2018-08-13T02:52:14.731Z,4.50
2018-08-13T02:54:42.996Z,4.15
2018-08-13T02:57:11.211Z,4.37
2018-08-13T02:59:39.469Z,3.98
2018-08-13T03:02:07.732Z,3.87
2018-08-13T03:04:36.050Z,4.23
2018-08-13T03:07:04.385Z,3.90
2018-08-13T03:09:32.696Z,4.70
2018-08-13T03:12:09.036Z,3.92
2018-08-13T03:14:37.340Z,4.28
2018-08-13T03:17:05.689Z,4.85
2018-08-13T03:19:34.100Z,3.75
2018-08-13T03:22:02.439Z,4.55
2018-08-13T03:24:30.835Z,4.55
2018-08-13T03:26:59.069Z,4.97
2018-08-13T03:29:27.366Z,4.00
2018-08-13T03:31:55.644Z,4.12
2018-08-13T03:34:23.887Z,4.10
2018-08-13T03:36:52.109Z,3.50
2018-08-13T03:39:20.340Z,3.77
2018-08-13T03:41:48.595Z,3.85
2018-08-13T03:44:16.800Z,3.90
2018-08-13T03:46:45.195Z,3.90
2018-08-13T03:49:13.550Z,4.37
2018-08-13T03:51:42.271Z,4.40
2018-08-13T03:54:10.531Z,4.25
2018-08-13T03:56:38.772Z,4.00
2018-08-13T03:59:07.059Z,4.10
2018-08-13T04:01:35.353Z,4.13
2018-08-13T04:04:03.654Z,5.20
2018-08-13T04:06:32.029Z,4.33
2018-08-13T04:09:00.368Z,4.50
2018-08-13T04:11:28.613Z,4.43
2018-08-13T04:13:56.847Z,4.00
2018-08-13T04:16:25.098Z,3.95
2018-08-13T04:18:53.476Z,4.50
2018-08-13T04:21:22.577Z,4.43
2018-08-13T04:23:50.767Z,3.80
2018-08-13T04:26:19.077Z,3.80
2018-08-13T04:28:47.247Z,4.90
2018-08-13T04:31:15.696Z,4.10
2018-08-13T04:33:44.011Z,4.20
2018-08-13T04:36:13.463Z,4.30
2018-08-13T04:38:41.827Z,3.75
2018-08-13T04:41:10.401Z,4.63
2018-08-13T04:43:38.653Z,4.33
2018-08-13T04:46:06.856Z,4.40
2018-08-13T04:48:35.135Z,3.83
2018-08-13T04:51:03.334Z,3.98
2018-08-13T04:53:31.576Z,4.03
2018-08-13T04:55:59.772Z,3.77
2018-08-13T04:58:27.964Z,3.90
2018-08-13T05:00:56.389Z,4.20
2018-08-13T05:03:29.324Z,4.33
2018-08-13T05:05:57.947Z,3.93
2018-08-13T05:08:26.384Z,4.43
2018-08-13T05:10:54.880Z,4.33
2018-08-13T05:13:23.140Z,4.40
2018-08-13T05:15:51.362Z,3.97
2018-08-13T05:18:19.590Z,3.87
2018-08-13T05:20:47.762Z,3.63
2018-08-13T05:23:15.984Z,4.00
2018-08-13T05:25:45.446Z,4.10
2018-08-13T05:28:13.790Z,3.93
2018-08-13T05:30:42.078Z,4.10
2018-08-13T05:33:10.257Z,3.60
2018-08-13T05:35:39.547Z,4.03
2018-08-13T05:38:07.731Z,3.53
2018-08-13T05:40:37.032Z,3.80
2018-08-13T05:43:05.733Z,3.53
2018-08-13T05:45:33.948Z,3.53
2018-08-13T05:48:02.172Z,3.30
2018-08-13T05:50:31.094Z,3.30
2018-08-13T05:52:59.406Z,3.90
2018-08-13T05:55:27.512Z,3.93
2018-08-13T05:57:55.765Z,3.23
2018-08-13T06:00:23.908Z,3.67
2018-08-13T06:02:52.159Z,4.07
2018-08-13T06:05:20.383Z,3.30
2018-08-13T06:07:48.518Z,3.40
2018-08-13T06:10:16.848Z,3.60
2018-08-13T06:12:45.061Z,3.30
2018-08-13T06:15:13.973Z,3.60
2018-08-13T06:17:42.165Z,3.23
2018-08-13T06:20:11.736Z,3.00
2018-08-13T06:22:41.091Z,3.00
2018-08-13T06:25:09.848Z,3.07
2018-08-13T06:27:38.012Z,3.27
2018-08-13T06:30:11.424Z,2.90
2018-08-13T06:32:40.208Z,2.60
2018-08-13T06:35:08.380Z,2.93
2018-08-13T06:37:38.812Z,2.70
2018-08-13T06:40:07.602Z,3.03
2018-08-13T06:42:35.844Z,2.60
2018-08-13T06:45:04.835Z,3.53
2018-08-13T06:47:33.125Z,2.60
2018-08-13T06:50:01.315Z,2.60
2018-08-13T06:52:29.453Z,2.20
2018-08-13T06:54:57.740Z,3.13
2018-08-13T06:57:25.952Z,3.07
2018-08-13T06:59:54.134Z,2.50
2018-08-13T07:02:22.385Z,2.87
2018-08-13T07:04:50.721Z,2.40
2018-08-13T07:07:19.184Z,2.20
2018-08-13T07:09:47.569Z,2.00
2018-08-13T07:12:16.103Z,3.13
2018-08-13T07:14:44.320Z,2.63
2018-08-13T07:17:12.606Z,2.33
2018-08-13T07:19:40.846Z,2.47
2018-08-13T07:22:09.221Z,2.40
2018-08-13T07:24:37.352Z,2.40
2018-08-13T07:27:05.575Z,2.50
2018-08-13T07:29:33.832Z,2.73
2018-08-13T07:32:02.045Z,2.70
2018-08-13T07:34:30.305Z,2.20
2018-08-13T07:36:58.873Z,2.30
2018-08-13T07:39:27.158Z,2.47
2018-08-13T07:41:55.328Z,2.87
2018-08-13T07:44:23.537Z,2.77
2018-08-13T07:46:51.805Z,2.47
2018-08-13T07:49:19.982Z,2.67
2018-08-13T07:51:48.214Z,2.60
2018-08-13T07:54:16.743Z,2.87
2018-08-13T07:56:44.943Z,2.90
2018-08-13T07:59:13.191Z,2.23
2018-08-13T08:01:41.417Z,2.53
2018-08-13T08:04:09.664Z,3.20
2018-08-13T08:06:37.903Z,1.97
2018-08-13T08:09:09.019Z,2.50
2018-08-13T08:11:37.156Z,2.23
2018-08-13T08:14:05.822Z,2.53
2018-08-13T08:16:33.988Z,2.47
2018-08-13T08:19:02.236Z,2.50
2018-08-13T08:21:30.625Z,2.50
2018-08-13T08:23:58.899Z,2.80
2018-08-13T08:26:27.113Z,2.53
2018-08-13T08:28:55.288Z,2.20
2018-08-13T08:31:24.115Z,2.67
2018-08-13T08:33:52.325Z,3.00
2018-08-13T08:36:20.496Z,2.30
2018-08-13T08:38:48.671Z,1.80
2018-08-13T08:41:16.934Z,2.43
2018-08-13T08:43:45.113Z,3.17
2018-08-13T08:46:13.374Z,2.20
2018-08-13T08:48:41.589Z,2.30
2018-08-13T08:51:09.860Z,2.50
2018-08-13T08:53:38.110Z,2.40
2018-08-13T08:56:06.215Z,2.27
2018-08-13T08:58:34.379Z,1.90
2018-08-13T09:01:02.615Z,2.03
2018-08-13T09:03:30.841Z,2.47
2018-08-13T09:05:59.036Z,1.93
2018-08-13T09:08:27.158Z,2.00
2018-08-13T09:10:55.324Z,2.10
2018-08-13T09:13:23.576Z,2.23
2018-08-13T09:15:51.837Z,1.87
2018-08-13T09:20:35.232Z,1.77
2018-08-13T09:23:14.773Z,2.47
2018-08-13T09:25:54.185Z,2.40
2018-08-13T09:28:33.809Z,2.20
2018-08-13T09:31:15.653Z,2.13
2018-08-13T09:33:55.244Z,1.97
2018-08-13T09:36:23.568Z,2.70
2018-08-13T09:38:51.848Z,2.27
2018-08-13T09:41:20.089Z,1.90
2018-08-13T09:43:48.269Z,2.17
2018-08-13T09:46:16.544Z,2.13
2018-08-13T09:48:44.720Z,1.70
2018-08-13T09:51:12.981Z,1.70
2018-08-13T09:53:41.128Z,1.97
2018-08-13T09:56:09.463Z,1.53
2018-08-13T09:58:37.675Z,2.03
2018-08-13T10:01:07.269Z,2.03
2018-08-13T10:03:35.465Z,1.90
2018-08-13T10:06:03.677Z,1.60
2018-08-13T10:08:32.036Z,1.83
2018-08-13T10:11:00.213Z,1.70
2018-08-13T10:13:28.353Z,2.03
2018-08-13T10:15:56.506Z,1.80
2018-08-13T10:18:24.672Z,2.10
2018-08-13T10:20:52.876Z,1.73
2018-08-13T10:23:21.015Z,1.60
2018-08-13T10:25:49.392Z,1.93
2018-08-13T10:28:17.535Z,2.23
2018-08-13T10:30:45.697Z,1.90
2018-08-13T10:33:14.004Z,2.10
2018-08-13T10:35:42.220Z,2.37
2018-08-13T10:38:10.467Z,2.10
2018-08-13T10:40:38.628Z,1.57
2018-08-13T10:43:06.973Z,1.70
2018-08-13T10:45:35.196Z,1.60
2018-08-13T10:48:03.369Z,1.63
2018-08-13T10:50:31.593Z,2.53
2018-08-13T10:52:59.745Z,2.17
2018-08-13T10:55:27.887Z,1.83
2018-08-13T10:57:56.058Z,2.20
2018-08-13T11:00:24.345Z,1.60
2018-08-13T11:02:52.523Z,2.00
2018-08-13T11:05:20.623Z,2.50
2018-08-13T11:07:48.819Z,2.20
2018-08-13T11:10:16.956Z,2.10
2018-08-13T11:12:45.113Z,1.37
2018-08-13T11:15:16.033Z,2.33
2018-08-13T11:17:44.193Z,1.83
2018-08-13T11:20:12.401Z,1.80
2018-08-13T11:22:41.475Z,1.63
2018-08-13T11:25:11.443Z,2.20
2018-08-13T11:27:39.653Z,2.10
2018-08-13T11:30:10.822Z,2.20
2018-08-13T11:32:39.105Z,2.53
2018-08-13T11:35:07.572Z,2.13
2018-08-13T11:37:35.942Z,2.03
2018-08-13T11:40:07.516Z,2.20
2018-08-13T11:42:35.667Z,2.30
2018-08-13T11:45:04.068Z,2.30
2018-08-13T11:47:32.343Z,1.97
2018-08-13T11:50:00.576Z,2.07
2018-08-13T11:52:28.735Z,1.90
2018-08-13T11:54:56.893Z,2.30
2018-08-13T11:57:25.057Z,2.20
2018-08-13T11:59:53.256Z,2.43
2018-08-13T12:02:21.402Z,1.93
2018-08-13T12:04:49.567Z,2.60
2018-08-13T12:07:17.716Z,2.20
2018-08-13T12:09:45.840Z,2.30
2018-08-13T12:12:13.991Z,2.50
2018-08-13T12:14:42.152Z,2.57
2018-08-13T12:17:10.317Z,1.77
2018-08-13T12:19:38.485Z,2.20
2018-08-13T12:22:06.668Z,2.40
2018-08-13T12:24:35.034Z,2.00
2018-08-13T12:27:03.212Z,2.00
2018-08-13T12:29:31.484Z,1.70
2018-08-13T12:31:59.668Z,1.73
2018-08-13T12:34:27.813Z,1.60
2018-08-13T12:37:01.245Z,2.20
2018-08-13T12:39:29.400Z,2.13
2018-08-13T12:41:57.570Z,2.40
2018-08-13T12:44:25.825Z,2.20
2018-08-13T12:46:53.986Z,2.90
2018-08-13T12:49:22.129Z,2.43
2018-08-13T12:51:50.349Z,2.60
2018-08-13T12:54:18.536Z,2.47
2018-08-13T12:56:46.701Z,2.17
2018-08-13T12:59:14.907Z,2.30
2018-08-13T13:01:43.080Z,2.23
2018-08-13T13:04:12.636Z,2.60
2018-08-13T13:06:40.820Z,2.70
2018-08-13T13:09:10.783Z,2.70
2018-08-13T13:11:39.045Z,2.60
2018-08-13T13:14:07.288Z,3.10
2018-08-13T13:16:35.595Z,6.37
2018-08-13T13:19:03.747Z,7.00
2018-08-13T13:21:31.963Z,5.23
2018-08-13T13:24:00.175Z,3.30
2018-08-13T13:26:28.372Z,3.70
2018-08-13T13:28:56.560Z,4.10
2018-08-13T13:31:24.740Z,2.10
2018-08-13T13:33:52.917Z,3.00
2018-08-13T13:36:21.215Z,2.50
2018-08-13T13:38:49.465Z,2.80
2018-08-13T13:41:17.745Z,3.53
2018-08-13T13:43:45.929Z,2.50
2018-08-13T13:46:14.239Z,3.17
2018-08-13T13:48:42.488Z,2.50
2018-08-13T13:51:10.767Z,2.87
2018-08-13T13:53:39.034Z,2.90
2018-08-13T13:56:08.909Z,2.47
2018-08-13T13:58:37.070Z,2.87
2018-08-13T14:01:05.231Z,3.03
2018-08-13T14:03:33.375Z,2.80
2018-08-13T14:06:01.573Z,2.80
2018-08-13T14:08:29.718Z,2.50
2018-08-13T14:10:57.879Z,2.80
2018-08-13T14:13:26.041Z,3.43
2018-08-13T14:15:54.195Z,3.40
2018-08-13T14:18:22.377Z,2.53
2018-08-13T14:20:50.536Z,2.30
2018-08-13T14:23:18.709Z,2.60
2018-08-13T14:25:46.865Z,2.70
2018-08-13T14:28:15.001Z,2.77
2018-08-13T14:30:43.156Z,2.67
2018-08-13T14:33:11.417Z,2.70
2018-08-13T14:35:39.602Z,2.60
2018-08-13T14:38:14.316Z,2.30
2018-08-13T14:40:42.498Z,2.47
2018-08-13T14:43:10.699Z,2.53
2018-08-13T14:45:40.979Z,2.53
2018-08-13T14:48:09.178Z,2.07
2018-08-13T14:50:41.252Z,2.60
2018-08-13T14:53:09.413Z,1.93
2018-08-13T14:55:37.647Z,1.80
2018-08-13T14:58:06.242Z,2.37
2018-08-13T15:00:35.926Z,2.30
2018-08-13T15:03:09.037Z,2.33
2018-08-13T15:05:37.324Z,2.40
2018-08-13T15:08:05.648Z,2.20
2018-08-13T15:10:33.980Z,2.10
2018-08-13T15:13:02.307Z,2.60
2018-08-13T15:15:30.445Z,2.20
2018-08-13T15:17:58.625Z,1.90
2018-08-13T15:20:29.068Z,2.10
2018-08-13T15:22:57.392Z,2.53
2018-08-13T15:25:26.081Z,3.10
2018-08-13T15:27:54.753Z,2.43
2018-08-13T15:30:24.085Z,2.73
2018-08-13T15:32:53.566Z,1.97
2018-08-13T15:35:22.273Z,2.10
2018-08-13T15:37:51.113Z,2.60
2018-08-13T15:40:23.874Z,2.20
2018-08-13T15:42:52.264Z,2.20
2018-08-13T15:45:21.919Z,2.30
2018-08-13T15:47:50.668Z,3.27
2018-08-13T15:50:20.031Z,2.40
2018-08-13T15:52:49.377Z,2.40
2018-08-13T15:55:18.182Z,4.70
2018-08-13T15:57:47.289Z,2.80
2018-08-13T16:00:18.780Z,4.13
2018-08-13T16:02:55.023Z,3.27
2018-08-13T16:05:24.155Z,3.00
2018-08-13T16:07:53.133Z,2.40
2018-08-13T16:10:21.437Z,2.40
2018-08-13T16:12:49.843Z,1.80
2018-08-13T16:15:18.889Z,2.10
2018-08-13T16:17:48.145Z,2.57
2018-08-13T16:20:18.043Z,2.23
2018-08-13T16:22:46.825Z,2.20
2018-08-13T16:25:15.936Z,3.17
2018-08-13T16:27:45.556Z,2.67
2018-08-13T16:30:21.771Z,2.10
2018-08-13T16:32:50.512Z,2.27
2018-08-13T16:35:19.757Z,2.50
2018-08-13T16:37:48.387Z,1.90
2018-08-13T16:40:17.305Z,1.50
2018-08-13T16:42:46.036Z,2.10
2018-08-13T16:45:15.230Z,1.83
2018-08-13T16:47:43.521Z,2.00
2018-08-13T16:50:24.453Z,2.30
2018-08-13T16:52:53.456Z,1.87
2018-08-13T16:55:25.890Z,2.43
2018-08-13T16:57:54.312Z,1.90
2018-08-13T17:00:30.005Z,2.30
2018-08-13T17:03:11.876Z,2.10
2018-08-13T17:05:47.872Z,2.73
2018-08-13T17:08:41.557Z,2.80
2018-08-13T17:11:47.007Z,2.23
2018-08-13T17:18:06.031Z,1.80
2018-08-13T17:20:38.708Z,2.50
2018-08-13T17:23:07.376Z,2.80
2018-08-13T17:25:35.859Z,2.27
2018-08-13T17:28:04.135Z,2.80
2018-08-13T17:33:18.681Z,2.57
2018-08-13T17:35:47.340Z,3.07
2018-08-13T17:38:15.551Z,3.50
2018-08-13T17:40:44.140Z,3.30
2018-08-13T17:43:12.712Z,2.90
2018-08-13T17:45:50.837Z,3.10
2018-08-13T17:48:19.519Z,3.13
2018-08-13T17:50:56.621Z,2.83
2018-08-13T17:53:30.189Z,3.80
2018-08-13T17:55:58.995Z,2.73
2018-08-13T17:58:27.321Z,3.87
2018-08-13T18:00:58.857Z,3.70
2018-08-13T18:03:27.195Z,4.20
2018-08-13T18:05:55.524Z,4.17
2018-08-13T18:08:23.780Z,4.43
2018-08-13T18:10:53.597Z,4.30
2018-08-13T18:13:22.047Z,4.23
2018-08-13T18:15:51.562Z,4.63
2018-08-13T18:18:20.747Z,3.90
2018-08-13T18:20:49.574Z,4.70
2018-08-13T18:23:18.000Z,4.70
2018-08-13T18:25:46.632Z,4.83
2018-08-13T18:28:15.517Z,4.50
2018-08-13T18:30:44.471Z,4.83
2018-08-13T18:33:14.173Z,4.80
2018-08-13T18:35:42.403Z,4.07
2018-08-13T18:38:10.699Z,5.30
2018-08-13T18:40:39.822Z,4.40
2018-08-13T18:43:08.586Z,5.47
2018-08-13T18:45:37.033Z,4.67
2018-08-13T18:48:05.410Z,5.30
2018-08-13T18:50:34.279Z,5.10
2018-08-13T18:53:02.562Z,5.87
2018-08-13T18:55:30.953Z,4.20
2018-08-13T18:57:59.385Z,6.00
2018-08-13T19:00:32.047Z,5.50
2018-08-13T19:03:01.470Z,5.80
2018-08-13T19:05:29.868Z,5.17
2018-08-13T19:07:58.527Z,4.47
2018-08-13T19:10:26.958Z,5.50
2018-08-13T19:12:56.076Z,4.77
2018-08-13T19:15:25.724Z,4.10
2018-08-13T19:17:57.713Z,4.67
2018-08-13T19:20:26.279Z,4.20
2018-08-13T19:22:54.761Z,4.80
2018-08-13T19:25:24.777Z,4.63
2018-08-13T19:27:54.156Z,5.07
2018-08-13T19:30:23.412Z,4.60
2018-08-13T19:32:53.282Z,4.50
2018-08-13T19:35:22.567Z,4.23
2018-08-13T19:37:53.791Z,5.03
2018-08-13T19:40:24.606Z,4.27
2018-08-13T19:42:53.278Z,5.07
2018-08-13T19:45:23.791Z,4.70
2018-08-13T19:47:55.038Z,4.47
2018-08-13T19:50:23.533Z,4.67
2018-08-13T19:52:51.923Z,5.00
2018-08-13T19:55:21.336Z,4.83
2018-08-13T19:57:49.715Z,4.60
2018-08-13T20:00:22.491Z,5.13
2018-08-13T20:02:51.700Z,5.00
2018-08-13T20:05:22.021Z,6.00
2018-08-13T20:07:51.196Z,6.10
2018-08-13T20:10:19.671Z,5.70
2018-08-13T20:12:48.335Z,4.77
2018-08-13T20:15:17.371Z,5.13
2018-08-13T20:17:45.921Z,5.73
2018-08-13T20:20:15.497Z,5.03
2018-08-13T20:22:45.050Z,6.10
2018-08-13T20:25:14.759Z,7.07
2018-08-13T20:27:43.880Z,6.23
2018-08-13T20:30:14.101Z,6.60
2018-08-13T20:35:27.523Z,6.90
2018-08-13T20:37:56.614Z,8.60
2018-08-13T20:40:25.543Z,6.27
2018-08-13T20:42:55.085Z,6.50
2018-08-13T20:45:23.935Z,6.95
2018-08-13T20:47:52.744Z,6.77
2018-08-13T20:50:26.144Z,6.10
2018-08-13T20:52:55.570Z,6.33
2018-08-13T20:55:28.575Z,5.70
2018-08-13T20:57:57.553Z,6.67
2018-08-13T21:00:29.152Z,6.33
2018-08-13T21:02:57.711Z,6.70
2018-08-13T21:05:26.994Z,6.50
2018-08-13T21:07:56.170Z,7.03
2018-08-13T21:10:25.696Z,7.08
2018-08-13T21:12:54.854Z,7.87
2018-08-13T21:15:24.031Z,9.00
2018-08-13T21:17:53.011Z,8.25
2018-08-13T21:20:24.129Z,8.63
2018-08-13T21:22:53.073Z,9.60
2018-08-13T21:25:21.690Z,10.53
2018-08-13T21:27:50.018Z,9.38
2018-08-13T21:30:22.414Z,10.70
2018-08-13T21:32:50.860Z,10.70
2018-08-13T21:35:21.134Z,11.90
2018-08-13T21:37:49.791Z,12.50
2018-08-13T21:40:18.121Z,13.53
2018-08-13T21:42:46.557Z,14.65
2018-08-13T21:45:14.753Z,13.45
2018-08-13T21:47:43.076Z,12.30
2018-08-13T21:50:20.203Z,13.60
2018-08-13T21:52:49.098Z,14.53
2018-08-13T21:55:17.450Z,15.13
2018-08-13T21:57:45.822Z,16.17
2018-08-13T22:00:22.649Z,18.42
2018-08-13T22:02:50.923Z,19.60
2018-08-13T22:05:19.280Z,17.80
2018-08-13T22:07:47.840Z,17.27
2018-08-13T22:10:16.354Z,18.00
2018-08-13T22:12:44.696Z,19.17
2018-08-13T22:15:20.445Z,19.95
2018-08-13T22:17:48.765Z,20.80
2018-08-13T22:20:16.932Z,21.37
2018-08-13T22:22:45.232Z,22.42
2018-08-13T22:25:16.669Z,22.60
2018-08-13T22:27:44.931Z,22.22
2018-08-13T22:30:13.208Z,23.40
2018-08-13T22:32:41.509Z,23.47
2018-08-13T22:35:10.395Z,22.82
2018-08-13T22:37:40.168Z,23.38
2018-08-13T22:40:11.638Z,21.55
2018-08-13T22:42:40.471Z,24.27
2018-08-13T22:45:09.051Z,24.10
2018-08-13T22:47:37.655Z,29.72
2018-08-13T22:50:06.985Z,28.60
2018-08-13T22:52:36.591Z,29.82
2018-08-13T22:55:06.506Z,30.62
2018-08-13T22:57:35.042Z,32.53
2018-08-13T23:00:03.439Z,32.95
2018-08-13T23:02:31.756Z,34.33
2018-08-13T23:05:00.106Z,34.95
2018-08-13T23:07:28.509Z,33.23
2018-08-13T23:09:56.790Z,33.08
2018-08-13T23:12:25.085Z,32.50
2018-08-13T23:14:53.492Z,34.88
2018-08-13T23:17:21.704Z,34.70
2018-08-13T23:19:49.986Z,37.95
2018-08-13T23:22:31.385Z,32.75
2018-08-13T23:25:00.710Z,37.25
2018-08-13T23:27:28.945Z,38.48
2018-08-13T23:29:57.229Z,35.03
2018-08-13T23:32:25.531Z,39.98
2018-08-13T23:34:53.778Z,40.90
2018-08-13T23:37:22.003Z,43.17
2018-08-13T23:39:50.332Z,40.95
2018-08-13T23:42:18.588Z,39.48
2018-08-13T23:44:46.820Z,43.27
2018-08-13T23:47:16.224Z,43.10
2018-08-13T23:49:45.894Z,43.13
2018-08-13T23:52:14.156Z,40.17
2018-08-13T23:54:42.480Z,39.25
2018-08-13T23:57:10.923Z,41.58
2018-08-13T23:59:39.122Z,26.73
